sensor_id;sensor_type;location;lat;lon;timestamp;P1;durP1;ratioP1;P2;durP2;ratioP2
75216;SDS011;63800;51.972;5.682;2023-04-25T00:01:13;9.68;;;3.10;;
75216;SDS011;63800;51.972;5.682;2023-04-25T00:03:39;8.38;;;2.80;;
75216;SDS011;63800;51.972;5.682;2023-04-25T00:06:05;9.80;;;2.65;;
75216;SDS011;63800;51.972;5.682;2023-04-25T00:08:31;6.47;;;2.28;;
75216;SDS011;63800;51.972;5.682;2023-04-25T00:10:58;7.97;;;3.60;;
75216;SDS011;63800;51.972;5.682;2023-04-25T00:13:24;8.20;;;2.80;;
75216;SDS011;63800;51.972;5.682;2023-04-25T00:15:50;11.63;;;3.13;;
75216;SDS011;63800;51.972;5.682;2023-04-25T00:18:16;6.93;;;2.72;;
75216;SDS011;63800;51.972;5.682;2023-04-25T00:20:42;7.07;;;2.60;;
75216;SDS011;63800;51.972;5.682;2023-04-25T00:23:15;8.63;;;3.17;;
75216;SDS011;63800;51.972;5.682;2023-04-25T00:25:42;7.07;;;3.47;;
75216;SDS011;63800;51.972;5.682;2023-04-25T00:28:11;7.63;;;3.35;;
75216;SDS011;63800;51.972;5.682;2023-04-25T00:30:38;6.40;;;2.70;;
75216;SDS011;63800;51.972;5.682;2023-04-25T00:33:03;13.25;;;3.42;;
75216;SDS011;63800;51.972;5.682;2023-04-25T00:35:29;7.10;;;3.10;;
75216;SDS011;63800;51.972;5.682;2023-04-25T00:37:54;7.20;;;2.78;;
75216;SDS011;63800;51.972;5.682;2023-04-25T00:40:20;9.50;;;3.05;;
75216;SDS011;63800;51.972;5.682;2023-04-25T00:42:46;8.05;;;3.00;;
75216;SDS011;63800;51.972;5.682;2023-04-25T00:45:13;10.98;;;3.20;;
75216;SDS011;63800;51.972;5.682;2023-04-25T00:47:40;7.68;;;3.10;;
75216;SDS011;63800;51.972;5.682;2023-04-25T00:50:07;9.57;;;3.35;;
75216;SDS011;63800;51.972;5.682;2023-04-25T00:52:33;12.55;;;3.17;;
75216;SDS011;63800;51.972;5.682;2023-04-25T00:54:59;11.88;;;3.55;;
75216;SDS011;63800;51.972;5.682;2023-04-25T00:57:25;10.80;;;3.40;;
75216;SDS011;63800;51.972;5.682;2023-04-25T00:59:51;11.88;;;3.60;;
75216;SDS011;63800;51.972;5.682;2023-04-25T01:02:17;12.43;;;3.85;;
75216;SDS011;63800;51.972;5.682;2023-04-25T01:04:44;10.70;;;4.15;;
75216;SDS011;63800;51.972;5.682;2023-04-25T01:07:09;6.57;;;3.15;;
75216;SDS011;63800;51.972;5.682;2023-04-25T01:09:35;10.38;;;3.78;;
75216;SDS011;63800;51.972;5.682;2023-04-25T01:12:01;12.35;;;3.90;;
75216;SDS011;63800;51.972;5.682;2023-04-25T01:14:27;12.73;;;3.40;;
75216;SDS011;63800;51.972;5.682;2023-04-25T01:16:55;19.48;;;4.60;;
75216;SDS011;63800;51.972;5.682;2023-04-25T01:19:20;9.98;;;3.65;;
75216;SDS011;63800;51.972;5.682;2023-04-25T01:21:46;7.80;;;3.30;;
75216;SDS011;63800;51.972;5.682;2023-04-25T01:24:12;11.65;;;3.58;;
75216;SDS011;63800;51.972;5.682;2023-04-25T01:26:38;10.95;;;3.13;;
75216;SDS011;63800;51.972;5.682;2023-04-25T01:29:05;10.38;;;3.20;;
75216;SDS011;63800;51.972;5.682;2023-04-25T01:31:32;11.73;;;3.67;;
75216;SDS011;63800;51.972;5.682;2023-04-25T01:33:59;11.90;;;4.50;;
75216;SDS011;63800;51.972;5.682;2023-04-25T01:36:25;10.82;;;3.42;;
75216;SDS011;63800;51.972;5.682;2023-04-25T01:38:52;11.60;;;4.22;;
75216;SDS011;63800;51.972;5.682;2023-04-25T01:41:17;8.05;;;3.35;;
75216;SDS011;63800;51.972;5.682;2023-04-25T01:43:43;9.18;;;3.75;;
75216;SDS011;63800;51.972;5.682;2023-04-25T01:46:09;16.13;;;4.45;;
75216;SDS011;63800;51.972;5.682;2023-04-25T01:48:36;13.27;;;3.92;;
75216;SDS011;63800;51.972;5.682;2023-04-25T01:51:01;12.88;;;3.60;;
75216;SDS011;63800;51.972;5.682;2023-04-25T01:53:27;9.52;;;3.10;;
75216;SDS011;63800;51.972;5.682;2023-04-25T01:55:52;12.23;;;3.97;;
75216;SDS011;63800;51.972;5.682;2023-04-25T01:58:18;12.75;;;3.50;;
75216;SDS011;63800;51.972;5.682;2023-04-25T02:00:43;10.95;;;3.70;;
75216;SDS011;63800;51.972;5.682;2023-04-25T02:03:09;12.95;;;3.67;;
75216;SDS011;63800;51.972;5.682;2023-04-25T02:05:38;11.48;;;3.60;;
75216;SDS011;63800;51.972;5.682;2023-04-25T02:08:04;11.43;;;3.88;;
75216;SDS011;63800;51.972;5.682;2023-04-25T02:10:31;12.90;;;4.55;;
75216;SDS011;63800;51.972;5.682;2023-04-25T02:12:57;11.30;;;3.35;;
75216;SDS011;63800;51.972;5.682;2023-04-25T02:15:22;10.70;;;3.35;;
75216;SDS011;63800;51.972;5.682;2023-04-25T02:17:48;9.55;;;3.17;;
75216;SDS011;63800;51.972;5.682;2023-04-25T02:20:14;9.73;;;2.97;;
75216;SDS011;63800;51.972;5.682;2023-04-25T02:22:41;10.93;;;3.28;;
75216;SDS011;63800;51.972;5.682;2023-04-25T02:25:08;9.93;;;3.17;;
75216;SDS011;63800;51.972;5.682;2023-04-25T02:27:34;9.02;;;3.40;;
75216;SDS011;63800;51.972;5.682;2023-04-25T02:30:00;11.38;;;3.53;;
75216;SDS011;63800;51.972;5.682;2023-04-25T02:32:26;12.23;;;3.33;;
75216;SDS011;63800;51.972;5.682;2023-04-25T02:34:51;10.60;;;3.30;;
75216;SDS011;63800;51.972;5.682;2023-04-25T02:37:17;14.88;;;3.92;;
75216;SDS011;63800;51.972;5.682;2023-04-25T02:39:43;7.78;;;3.22;;
75216;SDS011;63800;51.972;5.682;2023-04-25T02:42:08;9.32;;;3.28;;
75216;SDS011;63800;51.972;5.682;2023-04-25T02:44:34;11.63;;;3.40;;
75216;SDS011;63800;51.972;5.682;2023-04-25T02:46:59;11.05;;;3.63;;
75216;SDS011;63800;51.972;5.682;2023-04-25T02:49:24;10.27;;;3.28;;
75216;SDS011;63800;51.972;5.682;2023-04-25T02:51:50;8.85;;;3.30;;
75216;SDS011;63800;51.972;5.682;2023-04-25T02:54:15;13.23;;;3.33;;
75216;SDS011;63800;51.972;5.682;2023-04-25T02:56:41;10.40;;;3.25;;
75216;SDS011;63800;51.972;5.682;2023-04-25T02:59:06;13.75;;;3.83;;
75216;SDS011;63800;51.972;5.682;2023-04-25T03:01:31;9.02;;;3.50;;
75216;SDS011;63800;51.972;5.682;2023-04-25T03:03:57;8.32;;;2.72;;
75216;SDS011;63800;51.972;5.682;2023-04-25T03:06:22;8.57;;;2.83;;
75216;SDS011;63800;51.972;5.682;2023-04-25T03:08:48;12.05;;;3.50;;
75216;SDS011;63800;51.972;5.682;2023-04-25T03:11:13;9.55;;;3.63;;
75216;SDS011;63800;51.972;5.682;2023-04-25T03:13:38;10.85;;;3.47;;
75216;SDS011;63800;51.972;5.682;2023-04-25T03:16:04;8.88;;;3.33;;
75216;SDS011;63800;51.972;5.682;2023-04-25T03:18:30;11.85;;;3.75;;
75216;SDS011;63800;51.972;5.682;2023-04-25T03:20:55;11.00;;;4.00;;
75216;SDS011;63800;51.972;5.682;2023-04-25T03:23:21;11.25;;;3.72;;
75216;SDS011;63800;51.972;5.682;2023-04-25T03:25:46;11.20;;;4.13;;
75216;SDS011;63800;51.972;5.682;2023-04-25T03:28:12;11.57;;;4.63;;
75216;SDS011;63800;51.972;5.682;2023-04-25T03:30:37;8.88;;;3.78;;
75216;SDS011;63800;51.972;5.682;2023-04-25T03:33:03;12.48;;;4.05;;
75216;SDS011;63800;51.972;5.682;2023-04-25T03:35:28;14.45;;;3.97;;
75216;SDS011;63800;51.972;5.682;2023-04-25T03:37:54;11.18;;;3.80;;
75216;SDS011;63800;51.972;5.682;2023-04-25T03:40:19;12.07;;;4.15;;
75216;SDS011;63800;51.972;5.682;2023-04-25T03:42:45;9.82;;;3.63;;
75216;SDS011;63800;51.972;5.682;2023-04-25T03:45:11;11.70;;;4.38;;
75216;SDS011;63800;51.972;5.682;2023-04-25T03:47:36;8.70;;;3.80;;
75216;SDS011;63800;51.972;5.682;2023-04-25T03:50:02;8.93;;;4.13;;
75216;SDS011;63800;51.972;5.682;2023-04-25T03:52:27;11.07;;;3.97;;
75216;SDS011;63800;51.972;5.682;2023-04-25T03:54:53;11.38;;;4.07;;
75216;SDS011;63800;51.972;5.682;2023-04-25T03:57:18;10.13;;;4.25;;
75216;SDS011;63800;51.972;5.682;2023-04-25T03:59:44;11.52;;;4.88;;
75216;SDS011;63800;51.972;5.682;2023-04-25T04:02:09;11.48;;;4.82;;
75216;SDS011;63800;51.972;5.682;2023-04-25T04:04:35;14.60;;;5.07;;
75216;SDS011;63800;51.972;5.682;2023-04-25T04:07:01;11.23;;;4.25;;
75216;SDS011;63800;51.972;5.682;2023-04-25T04:09:26;8.82;;;4.78;;
75216;SDS011;63800;51.972;5.682;2023-04-25T04:11:52;11.82;;;4.43;;
75216;SDS011;63800;51.972;5.682;2023-04-25T04:14:18;11.40;;;4.25;;
75216;SDS011;63800;51.972;5.682;2023-04-25T04:16:43;9.55;;;4.25;;
75216;SDS011;63800;51.972;5.682;2023-04-25T04:19:09;9.50;;;5.15;;
75216;SDS011;63800;51.972;5.682;2023-04-25T04:21:35;10.50;;;4.57;;
75216;SDS011;63800;51.972;5.682;2023-04-25T04:24:00;11.98;;;4.88;;
75216;SDS011;63800;51.972;5.682;2023-04-25T04:26:26;10.65;;;4.22;;
75216;SDS011;63800;51.972;5.682;2023-04-25T04:28:51;11.38;;;4.78;;
75216;SDS011;63800;51.972;5.682;2023-04-25T04:31:19;13.88;;;4.68;;
75216;SDS011;63800;51.972;5.682;2023-04-25T04:33:48;9.75;;;4.15;;
75216;SDS011;63800;51.972;5.682;2023-04-25T04:36:14;12.23;;;4.72;;
75216;SDS011;63800;51.972;5.682;2023-04-25T04:38:40;13.63;;;4.78;;
75216;SDS011;63800;51.972;5.682;2023-04-25T04:41:07;11.35;;;4.50;;
75216;SDS011;63800;51.972;5.682;2023-04-25T04:43:33;13.98;;;4.35;;
75216;SDS011;63800;51.972;5.682;2023-04-25T04:46:00;10.80;;;3.88;;
75216;SDS011;63800;51.972;5.682;2023-04-25T04:48:26;12.00;;;3.35;;
75216;SDS011;63800;51.972;5.682;2023-04-25T04:50:51;9.85;;;3.95;;
75216;SDS011;63800;51.972;5.682;2023-04-25T04:53:17;6.68;;;3.40;;
75216;SDS011;63800;51.972;5.682;2023-04-25T04:55:42;10.70;;;3.88;;
75216;SDS011;63800;51.972;5.682;2023-04-25T04:58:08;9.93;;;3.30;;
75216;SDS011;63800;51.972;5.682;2023-04-25T05:00:34;9.32;;;3.10;;
75216;SDS011;63800;51.972;5.682;2023-04-25T05:03:00;9.93;;;3.03;;
75216;SDS011;63800;51.972;5.682;2023-04-25T05:05:26;13.52;;;3.40;;
75216;SDS011;63800;51.972;5.682;2023-04-25T05:07:51;9.52;;;2.75;;
75216;SDS011;63800;51.972;5.682;2023-04-25T05:10:17;10.05;;;2.88;;
75216;SDS011;63800;51.972;5.682;2023-04-25T05:12:43;9.32;;;3.40;;
75216;SDS011;63800;51.972;5.682;2023-04-25T05:15:09;12.43;;;3.80;;
75216;SDS011;63800;51.972;5.682;2023-04-25T05:17:35;6.70;;;3.03;;
75216;SDS011;63800;51.972;5.682;2023-04-25T05:20:01;6.45;;;3.00;;
75216;SDS011;63800;51.972;5.682;2023-04-25T05:22:26;7.07;;;3.10;;
75216;SDS011;63800;51.972;5.682;2023-04-25T05:24:52;5.97;;;2.83;;
75216;SDS011;63800;51.972;5.682;2023-04-25T05:27:18;7.82;;;2.92;;
75216;SDS011;63800;51.972;5.682;2023-04-25T05:29:44;6.20;;;2.90;;
75216;SDS011;63800;51.972;5.682;2023-04-25T05:32:09;10.60;;;3.72;;
75216;SDS011;63800;51.972;5.682;2023-04-25T05:34:35;8.85;;;3.17;;
75216;SDS011;63800;51.972;5.682;2023-04-25T05:37:00;11.95;;;3.40;;
75216;SDS011;63800;51.972;5.682;2023-04-25T05:39:26;7.25;;;2.55;;
75216;SDS011;63800;51.972;5.682;2023-04-25T05:41:51;7.45;;;3.00;;
75216;SDS011;63800;51.972;5.682;2023-04-25T05:44:17;8.50;;;3.08;;
75216;SDS011;63800;51.972;5.682;2023-04-25T05:46:42;8.45;;;3.13;;
75216;SDS011;63800;51.972;5.682;2023-04-25T05:49:08;11.65;;;3.00;;
75216;SDS011;63800;51.972;5.682;2023-04-25T05:51:33;7.53;;;2.78;;
75216;SDS011;63800;51.972;5.682;2023-04-25T05:53:59;9.07;;;2.85;;
75216;SDS011;63800;51.972;5.682;2023-04-25T05:56:24;12.15;;;3.00;;
75216;SDS011;63800;51.972;5.682;2023-04-25T05:58:50;7.63;;;2.40;;
75216;SDS011;63800;51.972;5.682;2023-04-25T06:01:16;5.55;;;2.50;;
75216;SDS011;63800;51.972;5.682;2023-04-25T06:03:41;7.75;;;3.08;;
75216;SDS011;63800;51.972;5.682;2023-04-25T06:06:08;8.00;;;3.00;;
75216;SDS011;63800;51.972;5.682;2023-04-25T06:08:34;10.60;;;2.80;;
75216;SDS011;63800;51.972;5.682;2023-04-25T06:10:59;8.88;;;3.05;;
75216;SDS011;63800;51.972;5.682;2023-04-25T06:13:25;7.53;;;2.47;;
75216;SDS011;63800;51.972;5.682;2023-04-25T06:15:50;9.07;;;2.80;;
75216;SDS011;63800;51.972;5.682;2023-04-25T06:18:16;6.95;;;2.45;;
75216;SDS011;63800;51.972;5.682;2023-04-25T06:20:41;8.00;;;2.83;;
75216;SDS011;63800;51.972;5.682;2023-04-25T06:23:07;5.80;;;3.13;;
75216;SDS011;63800;51.972;5.682;2023-04-25T06:25:32;8.73;;;3.85;;
75216;SDS011;63800;51.972;5.682;2023-04-25T06:27:58;7.97;;;2.78;;
75216;SDS011;63800;51.972;5.682;2023-04-25T06:30:23;6.95;;;2.80;;
75216;SDS011;63800;51.972;5.682;2023-04-25T06:32:50;6.63;;;2.42;;
75216;SDS011;63800;51.972;5.682;2023-04-25T06:35:16;14.50;;;2.83;;
75216;SDS011;63800;51.972;5.682;2023-04-25T06:37:42;9.77;;;2.65;;
75216;SDS011;63800;51.972;5.682;2023-04-25T06:40:07;8.10;;;2.88;;
75216;SDS011;63800;51.972;5.682;2023-04-25T06:42:33;6.47;;;2.60;;
75216;SDS011;63800;51.972;5.682;2023-04-25T06:44:58;6.43;;;2.55;;
75216;SDS011;63800;51.972;5.682;2023-04-25T06:47:24;8.02;;;2.60;;
75216;SDS011;63800;51.972;5.682;2023-04-25T06:49:49;7.60;;;2.75;;
75216;SDS011;63800;51.972;5.682;2023-04-25T06:52:15;7.03;;;2.65;;
75216;SDS011;63800;51.972;5.682;2023-04-25T06:54:42;8.00;;;2.92;;
75216;SDS011;63800;51.972;5.682;2023-04-25T06:57:08;8.88;;;2.42;;
75216;SDS011;63800;51.972;5.682;2023-04-25T06:59:33;6.70;;;2.50;;
75216;SDS011;63800;51.972;5.682;2023-04-25T07:01:59;4.72;;;2.20;;
75216;SDS011;63800;51.972;5.682;2023-04-25T07:04:24;6.20;;;2.65;;
75216;SDS011;63800;51.972;5.682;2023-04-25T07:06:50;6.43;;;2.25;;
75216;SDS011;63800;51.972;5.682;2023-04-25T07:09:15;6.38;;;2.42;;
75216;SDS011;63800;51.972;5.682;2023-04-25T07:11:41;7.82;;;2.30;;
75216;SDS011;63800;51.972;5.682;2023-04-25T07:14:07;7.35;;;2.70;;
75216;SDS011;63800;51.972;5.682;2023-04-25T07:16:32;7.68;;;2.25;;
75216;SDS011;63800;51.972;5.682;2023-04-25T07:18:58;7.75;;;2.40;;
75216;SDS011;63800;51.972;5.682;2023-04-25T07:21:24;8.05;;;2.28;;
75216;SDS011;63800;51.972;5.682;2023-04-25T07:23:50;7.68;;;2.13;;
75216;SDS011;63800;51.972;5.682;2023-04-25T07:26:15;8.00;;;2.13;;
75216;SDS011;63800;51.972;5.682;2023-04-25T07:28:42;7.60;;;2.33;;
75216;SDS011;63800;51.972;5.682;2023-04-25T07:31:08;7.60;;;1.98;;
75216;SDS011;63800;51.972;5.682;2023-04-25T07:33:33;7.13;;;2.10;;
75216;SDS011;63800;51.972;5.682;2023-04-25T07:35:59;7.45;;;1.90;;
75216;SDS011;63800;51.972;5.682;2023-04-25T07:38:25;9.90;;;2.00;;
75216;SDS011;63800;51.972;5.682;2023-04-25T07:40:50;4.95;;;2.00;;
75216;SDS011;63800;51.972;5.682;2023-04-25T07:43:16;5.50;;;2.20;;
75216;SDS011;63800;51.972;5.682;2023-04-25T07:45:42;6.95;;;2.30;;
75216;SDS011;63800;51.972;5.682;2023-04-25T07:48:08;9.68;;;2.65;;
75216;SDS011;63800;51.972;5.682;2023-04-25T07:50:34;5.78;;;2.28;;
75216;SDS011;63800;51.972;5.682;2023-04-25T07:52:59;8.82;;;2.83;;
75216;SDS011;63800;51.972;5.682;2023-04-25T07:55:25;6.40;;;2.22;;
75216;SDS011;63800;51.972;5.682;2023-04-25T07:57:51;8.25;;;2.38;;
75216;SDS011;63800;51.972;5.682;2023-04-25T08:00:16;7.60;;;2.22;;
75216;SDS011;63800;51.972;5.682;2023-04-25T08:02:42;6.80;;;2.50;;
75216;SDS011;63800;51.972;5.682;2023-04-25T08:05:08;5.93;;;2.28;;
75216;SDS011;63800;51.972;5.682;2023-04-25T08:07:36;8.82;;;2.22;;
75216;SDS011;63800;51.972;5.682;2023-04-25T08:10:02;6.05;;;2.50;;
75216;SDS011;63800;51.972;5.682;2023-04-25T08:12:28;8.50;;;2.03;;
75216;SDS011;63800;51.972;5.682;2023-04-25T08:14:53;9.98;;;2.30;;
75216;SDS011;63800;51.972;5.682;2023-04-25T08:17:19;7.70;;;2.38;;
75216;SDS011;63800;51.972;5.682;2023-04-25T08:19:44;5.20;;;1.95;;
75216;SDS011;63800;51.972;5.682;2023-04-25T08:22:10;3.92;;;1.67;;
75216;SDS011;63800;51.972;5.682;2023-04-25T08:24:35;5.75;;;1.83;;
75216;SDS011;63800;51.972;5.682;2023-04-25T08:27:01;9.32;;;3.05;;
75216;SDS011;63800;51.972;5.682;2023-04-25T08:29:27;6.72;;;1.75;;
75216;SDS011;63800;51.972;5.682;2023-04-25T08:31:53;8.00;;;2.72;;
75216;SDS011;63800;51.972;5.682;2023-04-25T08:34:18;5.72;;;2.20;;
75216;SDS011;63800;51.972;5.682;2023-04-25T08:36:45;5.28;;;2.13;;
75216;SDS011;63800;51.972;5.682;2023-04-25T08:39:10;7.90;;;2.30;;
75216;SDS011;63800;51.972;5.682;2023-04-25T08:41:39;7.07;;;1.83;;
75216;SDS011;63800;51.972;5.682;2023-04-25T08:44:05;8.00;;;2.28;;
75216;SDS011;63800;51.972;5.682;2023-04-25T08:46:33;10.30;;;2.50;;
75216;SDS011;63800;51.972;5.682;2023-04-25T08:49:02;4.25;;;1.92;;
75216;SDS011;63800;51.972;5.682;2023-04-25T08:51:27;5.57;;;1.70;;
75216;SDS011;63800;51.972;5.682;2023-04-25T08:53:59;6.07;;;1.77;;
75216;SDS011;63800;51.972;5.682;2023-04-25T08:56:47;7.55;;;2.00;;
75216;SDS011;63800;51.972;5.682;2023-04-25T08:59:13;6.13;;;1.92;;
75216;SDS011;63800;51.972;5.682;2023-04-25T09:01:39;7.70;;;1.83;;
75216;SDS011;63800;51.972;5.682;2023-04-25T09:04:05;5.30;;;1.58;;
75216;SDS011;63800;51.972;5.682;2023-04-25T09:06:30;5.78;;;1.42;;
75216;SDS011;63800;51.972;5.682;2023-04-25T09:09:07;5.57;;;1.67;;
75216;SDS011;63800;51.972;5.682;2023-04-25T09:11:34;5.28;;;1.55;;
75216;SDS011;63800;51.972;5.682;2023-04-25T09:14:10;5.63;;;1.48;;
75216;SDS011;63800;51.972;5.682;2023-04-25T09:16:52;2.15;;;1.30;;
75216;SDS011;63800;51.972;5.682;2023-04-25T09:19:22;3.50;;;1.20;;
75216;SDS011;63800;51.972;5.682;2023-04-25T09:21:53;3.35;;;2.03;;
75216;SDS011;63800;51.972;5.682;2023-04-25T09:26:59;4.68;;;1.50;;
75216;SDS011;63800;51.972;5.682;2023-04-25T09:29:33;3.53;;;1.60;;
75216;SDS011;63800;51.972;5.682;2023-04-25T09:32:19;4.30;;;1.30;;
75216;SDS011;63800;51.972;5.682;2023-04-25T09:34:47;4.32;;;1.40;;
75216;SDS011;63800;51.972;5.682;2023-04-25T09:37:25;4.43;;;1.40;;
75216;SDS011;63800;51.972;5.682;2023-04-25T09:39:53;3.65;;;1.58;;
75216;SDS011;63800;51.972;5.682;2023-04-25T09:42:24;3.42;;;1.75;;
75216;SDS011;63800;51.972;5.682;2023-04-25T09:44:55;3.22;;;1.38;;
75216;SDS011;63800;51.972;5.682;2023-04-25T09:47:22;4.80;;;1.63;;
75216;SDS011;63800;51.972;5.682;2023-04-25T09:49:49;4.75;;;1.80;;
75216;SDS011;63800;51.972;5.682;2023-04-25T09:52:19;3.72;;;1.35;;
75216;SDS011;63800;51.972;5.682;2023-04-25T09:54:46;4.45;;;1.40;;
75216;SDS011;63800;51.972;5.682;2023-04-25T09:57:16;3.10;;;1.20;;
75216;SDS011;63800;51.972;5.682;2023-04-25T09:59:47;4.05;;;1.42;;
75216;SDS011;63800;51.972;5.682;2023-04-25T10:02:14;6.25;;;1.50;;
75216;SDS011;63800;51.972;5.682;2023-04-25T10:04:49;6.20;;;1.95;;
75216;SDS011;63800;51.972;5.682;2023-04-25T10:07:17;4.00;;;1.42;;
75216;SDS011;63800;51.972;5.682;2023-04-25T10:09:44;5.40;;;1.73;;
75216;SDS011;63800;51.972;5.682;2023-04-25T10:12:13;3.72;;;1.70;;
75216;SDS011;63800;51.972;5.682;2023-04-25T10:14:38;4.93;;;1.38;;
75216;SDS011;63800;51.972;5.682;2023-04-25T10:17:05;3.97;;;1.50;;
75216;SDS011;63800;51.972;5.682;2023-04-25T10:19:31;4.15;;;1.38;;
75216;SDS011;63800;51.972;5.682;2023-04-25T10:22:03;4.18;;;1.48;;
75216;SDS011;63800;51.972;5.682;2023-04-25T10:24:29;2.65;;;1.58;;
75216;SDS011;63800;51.972;5.682;2023-04-25T10:26:55;3.65;;;1.67;;
75216;SDS011;63800;51.972;5.682;2023-04-25T10:29:23;4.30;;;1.58;;
75216;SDS011;63800;51.972;5.682;2023-04-25T10:31:49;6.88;;;2.03;;
75216;SDS011;63800;51.972;5.682;2023-04-25T10:34:15;4.03;;;1.90;;
75216;SDS011;63800;51.972;5.682;2023-04-25T10:36:42;2.60;;;1.30;;
75216;SDS011;63800;51.972;5.682;2023-04-25T10:39:07;1.83;;;1.40;;
75216;SDS011;63800;51.972;5.682;2023-04-25T10:41:46;1.75;;;1.17;;
75216;SDS011;63800;51.972;5.682;2023-04-25T10:44:16;3.17;;;1.02;;
75216;SDS011;63800;51.972;5.682;2023-04-25T10:46:42;4.40;;;1.40;;
75216;SDS011;63800;51.972;5.682;2023-04-25T10:49:09;4.93;;;1.73;;
75216;SDS011;63800;51.972;5.682;2023-04-25T10:51:36;4.38;;;1.33;;
75216;SDS011;63800;51.972;5.682;2023-04-25T10:54:05;2.92;;;1.42;;
75216;SDS011;63800;51.972;5.682;2023-04-25T10:56:41;3.40;;;1.50;;
75216;SDS011;63800;51.972;5.682;2023-04-25T10:59:18;2.47;;;1.30;;
75216;SDS011;63800;51.972;5.682;2023-04-25T11:01:49;3.17;;;1.33;;
75216;SDS011;63800;51.972;5.682;2023-04-25T11:04:30;3.90;;;1.80;;
75216;SDS011;63800;51.972;5.682;2023-04-25T11:09:51;6.53;;;1.40;;
75216;SDS011;63800;51.972;5.682;2023-04-25T11:12:17;2.88;;;1.23;;
75216;SDS011;63800;51.972;5.682;2023-04-25T11:14:42;1.83;;;1.30;;
75216;SDS011;63800;51.972;5.682;2023-04-25T11:17:08;3.75;;;1.52;;
75216;SDS011;63800;51.972;5.682;2023-04-25T11:19:35;2.13;;;1.30;;
75216;SDS011;63800;51.972;5.682;2023-04-25T11:22:01;5.45;;;1.65;;
75216;SDS011;63800;51.972;5.682;2023-04-25T11:24:28;2.78;;;1.20;;
75216;SDS011;63800;51.972;5.682;2023-04-25T11:27:01;3.53;;;1.30;;
75216;SDS011;63800;51.972;5.682;2023-04-25T11:29:31;4.95;;;1.35;;
75216;SDS011;63800;51.972;5.682;2023-04-25T11:31:57;3.00;;;1.20;;
75216;SDS011;63800;51.972;5.682;2023-04-25T11:34:23;1.95;;;1.23;;
75216;SDS011;63800;51.972;5.682;2023-04-25T11:36:50;2.95;;;1.52;;
75216;SDS011;63800;51.972;5.682;2023-04-25T11:39:17;2.53;;;1.30;;
75216;SDS011;63800;51.972;5.682;2023-04-25T11:41:46;2.28;;;1.30;;
75216;SDS011;63800;51.972;5.682;2023-04-25T11:44:15;3.45;;;1.70;;
75216;SDS011;63800;51.972;5.682;2023-04-25T11:46:44;4.82;;;1.58;;
75216;SDS011;63800;51.972;5.682;2023-04-25T11:49:10;3.00;;;1.30;;
75216;SDS011;63800;51.972;5.682;2023-04-25T11:51:43;2.00;;;1.30;;
75216;SDS011;63800;51.972;5.682;2023-04-25T11:54:10;3.78;;;1.63;;
75216;SDS011;63800;51.972;5.682;2023-04-25T11:56:37;4.18;;;1.45;;
75216;SDS011;63800;51.972;5.682;2023-04-25T11:59:03;3.97;;;1.40;;
75216;SDS011;63800;51.972;5.682;2023-04-25T12:01:30;3.38;;;1.63;;
75216;SDS011;63800;51.972;5.682;2023-04-25T12:03:57;4.28;;;1.70;;
75216;SDS011;63800;51.972;5.682;2023-04-25T12:06:27;4.88;;;1.48;;
75216;SDS011;63800;51.972;5.682;2023-04-25T12:09:07;4.07;;;1.67;;
75216;SDS011;63800;51.972;5.682;2023-04-25T12:11:47;2.97;;;1.45;;
75216;SDS011;63800;51.972;5.682;2023-04-25T12:14:20;5.20;;;1.70;;
75216;SDS011;63800;51.972;5.682;2023-04-25T12:16:48;6.35;;;1.45;;
75216;SDS011;63800;51.972;5.682;2023-04-25T12:19:16;3.40;;;1.38;;
75216;SDS011;63800;51.972;5.682;2023-04-25T12:21:43;6.30;;;1.90;;
75216;SDS011;63800;51.972;5.682;2023-04-25T12:29:18;4.35;;;1.67;;
75216;SDS011;63800;51.972;5.682;2023-04-25T12:31:49;7.15;;;1.70;;
75216;SDS011;63800;51.972;5.682;2023-04-25T12:34:16;4.72;;;1.60;;
75216;SDS011;63800;51.972;5.682;2023-04-25T12:36:42;5.38;;;1.63;;
75216;SDS011;63800;51.972;5.682;2023-04-25T12:39:08;5.85;;;1.60;;
75216;SDS011;63800;51.972;5.682;2023-04-25T12:41:40;3.40;;;1.70;;
75216;SDS011;63800;51.972;5.682;2023-04-25T12:44:06;4.25;;;1.33;;
75216;SDS011;63800;51.972;5.682;2023-04-25T12:46:31;4.55;;;1.75;;
75216;SDS011;63800;51.972;5.682;2023-04-25T12:48:56;2.83;;;1.55;;
75216;SDS011;63800;51.972;5.682;2023-04-25T12:51:22;4.82;;;1.70;;
75216;SDS011;63800;51.972;5.682;2023-04-25T12:53:50;3.42;;;1.48;;
75216;SDS011;63800;51.972;5.682;2023-04-25T12:56:15;3.35;;;1.70;;
75216;SDS011;63800;51.972;5.682;2023-04-25T12:58:41;4.35;;;1.50;;
75216;SDS011;63800;51.972;5.682;2023-04-25T13:01:09;6.85;;;1.60;;
75216;SDS011;63800;51.972;5.682;2023-04-25T13:03:34;6.30;;;1.60;;
75216;SDS011;63800;51.972;5.682;2023-04-25T13:05:59;2.13;;;1.42;;
75216;SDS011;63800;51.972;5.682;2023-04-25T13:08:25;5.07;;;1.33;;
75216;SDS011;63800;51.972;5.682;2023-04-25T13:10:51;4.35;;;1.52;;
75216;SDS011;63800;51.972;5.682;2023-04-25T13:13:16;5.85;;;1.58;;
75216;SDS011;63800;51.972;5.682;2023-04-25T13:15:42;3.53;;;1.50;;
75216;SDS011;63800;51.972;5.682;2023-04-25T13:18:08;2.55;;;1.17;;
75216;SDS011;63800;51.972;5.682;2023-04-25T13:20:33;4.78;;;1.40;;
75216;SDS011;63800;51.972;5.682;2023-04-25T13:22:59;4.68;;;1.52;;
75216;SDS011;63800;51.972;5.682;2023-04-25T13:25:24;4.25;;;1.45;;
75216;SDS011;63800;51.972;5.682;2023-04-25T13:27:50;2.30;;;1.20;;
75216;SDS011;63800;51.972;5.682;2023-04-25T13:30:15;3.20;;;1.10;;
75216;SDS011;63800;51.972;5.682;2023-04-25T13:32:41;4.13;;;1.38;;
75216;SDS011;63800;51.972;5.682;2023-04-25T13:35:07;4.22;;;1.38;;
75216;SDS011;63800;51.972;5.682;2023-04-25T13:37:35;4.97;;;1.20;;
75216;SDS011;63800;51.972;5.682;2023-04-25T13:40:05;6.20;;;1.83;;
75216;SDS011;63800;51.972;5.682;2023-04-25T13:42:35;2.88;;;1.58;;
75216;SDS011;63800;51.972;5.682;2023-04-25T13:45:02;4.00;;;1.30;;
75216;SDS011;63800;51.972;5.682;2023-04-25T13:47:28;2.40;;;1.60;;
75216;SDS011;63800;51.972;5.682;2023-04-25T13:49:55;1.98;;;1.20;;
75216;SDS011;63800;51.972;5.682;2023-04-25T13:52:20;1.80;;;1.30;;
75216;SDS011;63800;51.972;5.682;2023-04-25T13:54:46;4.07;;;1.60;;
75216;SDS011;63800;51.972;5.682;2023-04-25T13:57:11;3.70;;;1.23;;
75216;SDS011;63800;51.972;5.682;2023-04-25T13:59:38;2.97;;;1.15;;
75216;SDS011;63800;51.972;5.682;2023-04-25T14:02:05;2.50;;;1.17;;
75216;SDS011;63800;51.972;5.682;2023-04-25T14:04:31;3.65;;;1.40;;
75216;SDS011;63800;51.972;5.682;2023-04-25T14:06:57;6.15;;;1.40;;
75216;SDS011;63800;51.972;5.682;2023-04-25T14:09:23;4.95;;;1.60;;
75216;SDS011;63800;51.972;5.682;2023-04-25T14:11:53;5.32;;;1.85;;
75216;SDS011;63800;51.972;5.682;2023-04-25T14:14:20;5.15;;;1.60;;
75216;SDS011;63800;51.972;5.682;2023-04-25T14:16:46;3.65;;;1.55;;
75216;SDS011;63800;51.972;5.682;2023-04-25T14:19:16;4.70;;;2.13;;
75216;SDS011;63800;51.972;5.682;2023-04-25T14:21:45;4.38;;;1.92;;
75216;SDS011;63800;51.972;5.682;2023-04-25T14:24:11;6.25;;;1.73;;
75216;SDS011;63800;51.972;5.682;2023-04-25T14:26:36;2.25;;;1.45;;
75216;SDS011;63800;51.972;5.682;2023-04-25T14:29:03;4.90;;;1.60;;
75216;SDS011;63800;51.972;5.682;2023-04-25T14:31:30;4.53;;;1.42;;
75216;SDS011;63800;51.972;5.682;2023-04-25T14:33:56;4.50;;;1.30;;
75216;SDS011;63800;51.972;5.682;2023-04-25T14:36:21;3.92;;;1.55;;
75216;SDS011;63800;51.972;5.682;2023-04-25T14:38:46;6.00;;;1.50;;
75216;SDS011;63800;51.972;5.682;2023-04-25T14:41:12;7.45;;;1.55;;
75216;SDS011;63800;51.972;5.682;2023-04-25T14:43:37;1.92;;;1.38;;
75216;SDS011;63800;51.972;5.682;2023-04-25T14:46:04;4.18;;;1.60;;
75216;SDS011;63800;51.972;5.682;2023-04-25T14:48:30;4.82;;;1.60;;
75216;SDS011;63800;51.972;5.682;2023-04-25T14:50:56;3.65;;;1.65;;
75216;SDS011;63800;51.972;5.682;2023-04-25T14:53:21;3.05;;;1.67;;